Time;durP1;ratioP1;P1;durP2;ratioP2;P2;SDS_P1;SDS_P2;PMS_P1;PMS_P2;Temp;Humidity;BMP_temperature;BMP_pressure;BME280_temperature;BME280_humidity;BME280_pressure;Samples;Min_cycle;Max_cycle;Signal;HPM_P1;HPM_P2
2023/10/22 00:00:33;;;;;;;3.25;1.08;;;15.50;99.90;;;;;;2096915;28;20033;-72
2023/10/22 00:01:34;;;;;;;3.33;0.98;;;15.50;99.90;;;;;;2098203;28;20024;-72
2023/10/22 00:02:38;;;;;;;5.30;1.35;;;15.50;99.90;;;;;;2099113;28;20134;-72
2023/10/22 00:03:38;;;;;;;4.28;1.10;;;15.60;99.90;;;;;;2097653;28;20033;-72
2023/10/22 00:04:39;;;;;;;3.38;1.08;;;15.50;99.90;;;;;;2097430;28;20429;-72
2023/10/22 00:05:40;;;;;;;3.03;1.08;;;15.60;99.90;;;;;;2096310;28;20089;-72
2023/10/22 00:06:42;;;;;;;3.10;0.80;;;15.60;99.90;;;;;;2097679;28;20085;-72
2023/10/22 00:07:43;;;;;;;4.20;1.27;;;15.60;99.90;;;;;;2096188;28;20028;-73
2023/10/22 00:08:44;;;;;;;4.47;1.10;;;15.60;99.90;;;;;;2096799;28;20024;-72
2023/10/22 00:09:44;;;;;;;3.78;1.00;;;15.60;99.90;;;;;;2105723;28;20044;-72
2023/10/22 00:10:45;;;;;;;2.47;0.93;;;15.60;99.90;;;;;;2107432;28;20036;-72
2023/10/22 00:11:45;;;;;;;5.30;0.82;;;15.60;99.90;;;;;;2096969;28;20495;-72
2023/10/22 00:12:46;;;;;;;3.92;1.45;;;15.60;99.90;;;;;;2098372;28;20115;-72
2023/10/22 00:13:46;;;;;;;4.07;1.13;;;15.60;99.90;;;;;;2098447;28;20034;-72
2023/10/22 00:14:47;;;;;;;2.65;1.00;;;15.60;99.90;;;;;;2097367;28;20059;-73
2023/10/22 00:15:48;;;;;;;3.17;0.80;;;15.60;99.90;;;;;;2097152;28;20092;-72
2023/10/22 00:16:49;;;;;;;1.50;0.75;;;15.60;99.90;;;;;;2097259;28;20073;-72
2023/10/22 00:17:49;;;;;;;2.70;1.08;;;15.60;99.90;;;;;;2095276;28;20047;-73
2023/10/22 00:18:50;;;;;;;3.45;0.85;;;15.60;99.90;;;;;;2095166;28;20041;-72
2023/10/22 00:19:51;;;;;;;4.15;1.13;;;15.70;99.90;;;;;;2098223;28;20032;-72
2023/10/22 00:20:51;;;;;;;3.92;1.00;;;15.60;99.90;;;;;;2096595;28;20024;-72
2023/10/22 00:21:52;;;;;;;2.42;0.82;;;15.60;99.90;;;;;;2096785;28;20373;-72
2023/10/22 00:22:53;;;;;;;4.55;0.95;;;15.60;99.90;;;;;;2096863;28;20036;-72
2023/10/22 00:23:53;;;;;;;3.05;0.90;;;15.60;99.90;;;;;;2097379;28;20225;-72
2023/10/22 00:24:54;;;;;;;4.07;0.88;;;15.60;99.90;;;;;;2097276;28;20033;-73
2023/10/22 00:25:54;;;;;;;3.67;1.00;;;15.60;99.90;;;;;;2098361;28;20032;-72
2023/10/22 00:26:55;;;;;;;5.85;1.33;;;15.70;99.90;;;;;;2101111;28;20077;-72
2023/10/22 00:27:55;;;;;;;3.30;1.20;;;15.70;99.90;;;;;;2091910;28;20070;-72
2023/10/22 00:28:56;;;;;;;6.05;0.95;;;15.70;99.90;;;;;;2100922;28;20643;-72
2023/10/22 00:29:56;;;;;;;2.63;0.98;;;15.70;99.90;;;;;;2097650;28;20024;-73
2023/10/22 00:30:57;;;;;;;3.90;1.42;;;15.60;99.90;;;;;;2099310;28;20021;-72
2023/10/22 00:31:58;;;;;;;3.83;0.82;;;15.70;99.90;;;;;;2090282;28;20439;-72
2023/10/22 00:32:58;;;;;;;3.15;1.00;;;15.70;99.90;;;;;;2102006;28;20020;-72
2023/10/22 00:33:59;;;;;;;4.00;1.00;;;15.70;99.90;;;;;;2097106;28;20476;-72
2023/10/22 00:34:59;;;;;;;3.00;1.00;;;15.70;99.90;;;;;;2100841;28;20024;-72
2023/10/22 00:36:00;;;;;;;2.47;1.00;;;15.70;99.90;;;;;;2101197;28;20028;-72
2023/10/22 00:37:01;;;;;;;2.70;0.82;;;15.70;99.90;;;;;;2097075;28;20491;-72
2023/10/22 00:38:01;;;;;;;4.43;1.05;;;15.70;99.90;;;;;;2098444;28;20025;-72
2023/10/22 00:39:02;;;;;;;5.75;1.08;;;15.70;99.90;;;;;;2098496;28;20039;-73
2023/10/22 00:40:03;;;;;;;2.67;1.10;;;15.70;99.90;;;;;;2097958;28;20115;-72
2023/10/22 00:41:03;;;;;;;3.10;0.95;;;15.70;99.90;;;;;;2100482;28;20051;-73
2023/10/22 00:42:04;;;;;;;4.53;1.20;;;15.70;99.90;;;;;;2101366;28;20031;-72
2023/10/22 00:43:05;;;;;;;3.47;1.20;;;15.70;99.90;;;;;;2097417;28;20038;-72
2023/10/22 00:44:06;;;;;;;4.05;1.42;;;15.70;99.90;;;;;;2096430;28;20040;-72
2023/10/22 00:45:09;;;;;;;6.03;1.40;;;15.70;99.90;;;;;;2097651;28;20040;-72
2023/10/22 00:46:19;;;;;;;2.92;1.30;;;15.70;99.90;;;;;;2094598;28;20025;-72
2023/10/22 00:47:19;;;;;;;3.13;0.80;;;15.70;99.90;;;;;;2096999;28;20025;-72
2023/10/22 00:48:21;;;;;;;3.58;1.25;;;15.70;99.90;;;;;;2097199;28;20025;-72
2023/10/22 00:49:22;;;;;;;3.30;1.15;;;15.70;99.90;;;;;;2100132;28;20024;-72
2023/10/22 00:50:23;;;;;;;2.95;1.00;;;15.70;99.90;;;;;;2095185;28;20076;-72
2023/10/22 00:51:24;;;;;;;6.70;1.33;;;15.70;99.90;;;;;;2100518;28;20020;-72
2023/10/22 00:52:25;;;;;;;1.45;0.80;;;15.70;99.90;;;;;;2096457;28;20476;-71
2023/10/22 00:53:29;;;;;;;2.58;1.00;;;15.70;99.90;;;;;;2096648;28;20033;-72
2023/10/22 00:54:30;;;;;;;3.05;1.30;;;15.70;99.90;;;;;;2097085;28;20032;-73
2023/10/22 00:55:32;;;;;;;3.22;1.10;;;15.70;99.90;;;;;;2096875;28;20116;-72
2023/10/22 00:56:33;;;;;;;4.32;1.23;;;15.70;99.90;;;;;;2099301;28;20077;-72
2023/10/22 00:57:34;;;;;;;2.33;1.00;;;15.70;99.90;;;;;;2091095;28;20032;-72
2023/10/22 00:58:34;;;;;;;3.97;1.00;;;15.70;99.90;;;;;;2099165;28;20032;-72
2023/10/22 00:59:35;;;;;;;3.90;0.90;;;15.70;99.90;;;;;;2099134;28;20111;-72
2023/10/22 01:00:36;;;;;;;3.83;1.10;;;15.70;99.90;;;;;;2100907;28;20055;-72
2023/10/22 01:01:37;;;;;;;3.88;0.98;;;15.70;99.90;;;;;;2095036;28;20106;-72
2023/10/22 01:02:37;;;;;;;3.88;0.85;;;15.70;99.90;;;;;;2099650;28;20476;-72
2023/10/22 01:03:39;;;;;;;4.72;1.15;;;15.70;99.90;;;;;;2098718;28;20031;-72
2023/10/22 01:04:39;;;;;;;3.72;1.20;;;15.70;99.90;;;;;;2100197;28;20039;-71
2023/10/22 01:05:40;;;;;;;3.20;1.00;;;15.70;99.90;;;;;;2097429;28;20024;-72
2023/10/22 01:06:40;;;;;;;3.63;1.00;;;15.70;99.90;;;;;;2100888;28;20094;-72
2023/10/22 01:07:41;;;;;;;4.28;0.98;;;15.70;99.90;;;;;;2099546;28;20414;-72
2023/10/22 01:08:42;;;;;;;3.83;0.93;;;15.70;99.90;;;;;;2100370;28;20032;-73
2023/10/22 01:09:43;;;;;;;4.55;1.10;;;15.70;99.90;;;;;;2097477;28;20024;-72
2023/10/22 01:10:43;;;;;;;3.28;1.30;;;15.70;99.90;;;;;;2098086;28;20166;-72
2023/10/22 01:12:00;;;;;;;2.65;0.93;;;15.70;99.90;;;;;;2096145;28;20017;-72
2023/10/22 01:13:03;;;;;;;3.53;1.20;;;15.70;99.90;;;;;;2100132;28;20499;-72
2023/10/22 01:14:05;;;;;;;3.50;0.98;;;15.70;99.90;;;;;;2098074;28;20017;-72
2023/10/22 01:15:06;;;;;;;3.20;1.00;;;15.70;99.90;;;;;;2098547;28;20518;-73
2023/10/22 01:16:10;;;;;;;2.00;0.93;;;15.70;99.90;;;;;;2100276;28;20390;-73
2023/10/22 01:17:11;;;;;;;5.60;1.45;;;15.70;99.90;;;;;;2098712;28;20029;-72
2023/10/22 01:18:12;;;;;;;2.65;1.00;;;15.70;99.90;;;;;;2098534;28;20028;-72
2023/10/22 01:19:13;;;;;;;4.05;1.05;;;15.70;99.90;;;;;;2099026;28;20387;-72
2023/10/22 01:20:13;;;;;;;3.30;0.80;;;15.70;99.90;;;;;;2097263;28;20031;-72
2023/10/22 01:21:14;;;;;;;4.50;1.30;;;15.70;99.90;;;;;;2100454;28;20032;-73
2023/10/22 01:22:14;;;;;;;3.78;1.35;;;15.70;99.90;;;;;;2099632;28;20074;-72
2023/10/22 01:23:15;;;;;;;4.72;1.30;;;15.70;99.90;;;;;;2099031;28;20040;-72
2023/10/22 01:24:15;;;;;;;2.67;0.95;;;15.70;99.90;;;;;;2099330;28;20060;-73
2023/10/22 01:25:16;;;;;;;2.72;1.00;;;15.70;99.90;;;;;;2100096;28;20040;-72
2023/10/22 01:26:16;;;;;;;2.90;1.05;;;15.70;99.90;;;;;;2097846;28;20024;-72
2023/10/22 01:27:17;;;;;;;2.33;1.00;;;15.70;99.90;;;;;;2099436;28;20867;-72
2023/10/22 01:28:17;;;;;;;2.05;0.88;;;15.70;99.90;;;;;;2096822;28;20386;-72
2023/10/22 01:29:18;;;;;;;4.57;1.45;;;15.70;99.90;;;;;;2098140;28;20027;-72
2023/10/22 01:30:19;;;;;;;2.15;0.88;;;15.70;99.90;;;;;;2098604;28;20021;-72
2023/10/22 01:31:19;;;;;;;4.35;0.93;;;15.70;99.90;;;;;;2099958;28;21598;-72
2023/10/22 01:32:20;;;;;;;3.47;1.02;;;15.70;99.90;;;;;;2099376;28;20035;-72
2023/10/22 01:33:21;;;;;;;5.35;1.20;;;15.70;99.90;;;;;;2098660;28;20085;-73
2023/10/22 01:34:21;;;;;;;2.42;0.90;;;15.70;99.90;;;;;;2098633;28;20035;-72
2023/10/22 01:35:22;;;;;;;4.40;1.05;;;15.70;99.90;;;;;;2099405;28;20024;-73
2023/10/22 01:36:23;;;;;;;2.92;1.00;;;15.70;99.90;;;;;;2097992;28;20028;-72
2023/10/22 01:37:23;;;;;;;3.95;0.70;;;15.70;99.90;;;;;;2100505;28;20093;-72
2023/10/22 01:38:24;;;;;;;2.45;1.00;;;15.70;99.90;;;;;;2101729;28;20390;-72
2023/10/22 01:39:24;;;;;;;5.25;1.52;;;15.70;99.90;;;;;;2101370;28;20029;-72
2023/10/22 01:40:25;;;;;;;2.95;0.90;;;15.70;99.90;;;;;;2099330;28;20020;-72
2023/10/22 01:41:26;;;;;;;2.25;0.88;;;15.70;99.90;;;;;;2097271;28;20027;-73
2023/10/22 01:42:26;;;;;;;3.38;0.90;;;15.70;99.90;;;;;;2097920;28;20020;-73
2023/10/22 01:43:27;;;;;;;3.85;0.93;;;15.70;99.90;;;;;;2097416;28;20032;-72
2023/10/22 01:44:27;;;;;;;2.58;0.98;;;15.70;99.90;;;;;;2096952;28;20554;-72
2023/10/22 01:45:28;;;;;;;2.28;0.63;;;15.70;99.90;;;;;;2098412;28;20016;-72
2023/10/22 01:46:28;;;;;;;4.95;1.50;;;15.70;99.90;;;;;;2092138;28;20028;-72
2023/10/22 01:47:29;;;;;;;2.25;0.82;;;15.70;99.90;;;;;;2101112;28;20016;-72
2023/10/22 01:48:29;;;;;;;2.17;0.85;;;15.70;99.90;;;;;;2099949;28;20039;-72
2023/10/22 01:49:30;;;;;;;2.85;0.90;;;15.70;99.90;;;;;;2098756;28;20688;-72
2023/10/22 01:50:30;;;;;;;4.47;1.30;;;15.70;99.90;;;;;;2101060;28;20056;-72
2023/10/22 01:51:31;;;;;;;1.60;0.80;;;15.70;99.90;;;;;;2099055;28;20480;-72
2023/10/22 01:52:32;;;;;;;2.20;0.80;;;15.70;99.90;;;;;;2100440;28;20028;-72
2023/10/22 01:53:33;;;;;;;2.42;0.90;;;15.70;99.90;;;;;;2097394;28;22684;-73
2023/10/22 01:54:34;;;;;;;2.42;1.00;;;15.70;99.90;;;;;;2098413;28;20037;-72
2023/10/22 01:55:35;;;;;;;4.13;0.73;;;15.70;99.90;;;;;;2099707;28;20012;-72
2023/10/22 01:56:35;;;;;;;2.78;0.95;;;15.70;99.90;;;;;;2098741;28;20036;-72
2023/10/22 01:57:36;;;;;;;3.97;0.80;;;15.70;99.90;;;;;;2097864;28;20028;-72
2023/10/22 01:58:36;;;;;;;2.45;0.93;;;15.70;99.90;;;;;;2103383;28;20112;-73
2023/10/22 01:59:37;;;;;;;4.32;1.10;;;15.70;99.90;;;;;;2102179;28;20027;-72
2023/10/22 02:00:38;;;;;;;3.33;0.85;;;15.70;99.90;;;;;;2096147;28;20017;-72
2023/10/22 02:01:39;;;;;;;3.20;0.90;;;15.70;99.90;;;;;;2090550;28;20036;-72
2023/10/22 02:02:39;;;;;;;4.63;0.98;;;15.70;99.90;;;;;;2091520;28;20589;-72
2023/10/22 02:03:45;;;;;;;2.63;0.75;;;15.70;99.90;;;;;;2090698;28;20114;-72
2023/10/22 02:04:45;;;;;;;3.72;0.98;;;15.70;99.90;;;;;;2099509;28;20051;-72
2023/10/22 02:05:46;;;;;;;2.20;1.10;;;15.70;99.90;;;;;;2101066;28;20058;-72
2023/10/22 02:06:46;;;;;;;4.00;1.00;;;15.70;99.90;;;;;;2101954;28;20525;-72
2023/10/22 02:07:47;;;;;;;3.15;0.90;;;15.70;99.90;;;;;;2100608;28;20020;-72
2023/10/22 02:08:48;;;;;;;3.60;1.55;;;15.70;99.90;;;;;;2099823;28;20118;-72
2023/10/22 02:09:48;;;;;;;3.90;0.90;;;15.70;99.90;;;;;;2098419;28;20492;-72
2023/10/22 02:10:49;;;;;;;3.38;0.98;;;15.70;99.90;;;;;;2098935;28;20024;-71
2023/10/22 02:11:50;;;;;;;3.95;1.00;;;15.70;99.90;;;;;;2097229;28;20048;-71
2023/10/22 02:12:51;;;;;;;3.20;0.98;;;15.70;99.90;;;;;;2098904;28;20024;-71
2023/10/22 02:13:52;;;;;;;3.28;1.08;;;15.70;99.90;;;;;;2091019;28;20053;-73
2023/10/22 02:14:52;;;;;;;2.28;0.80;;;15.60;99.90;;;;;;2092536;28;20025;-72
2023/10/22 02:15:53;;;;;;;3.03;0.95;;;15.70;99.90;;;;;;2102024;28;20036;-72
2023/10/22 02:16:54;;;;;;;2.83;1.00;;;15.70;99.90;;;;;;2097397;28;20032;-72
2023/10/22 02:17:54;;;;;;;5.88;0.90;;;15.70;99.90;;;;;;2098472;28;20020;-72
2023/10/22 02:18:55;;;;;;;2.08;0.60;;;15.60;99.90;;;;;;2098343;28;20114;-72
2023/10/22 02:19:55;;;;;;;2.95;0.80;;;15.70;99.90;;;;;;2096401;28;20028;-72
2023/10/22 02:20:59;;;;;;;3.75;0.95;;;15.70;99.90;;;;;;2099588;28;20116;-72
2023/10/22 02:21:59;;;;;;;1.63;0.73;;;15.60;99.90;;;;;;2099638;28;20073;-72
2023/10/22 02:23:01;;;;;;;6.00;1.10;;;15.60;99.90;;;;;;2097762;28;20025;-72
2023/10/22 02:24:01;;;;;;;4.88;1.08;;;15.60;99.90;;;;;;2096263;28;20607;-72
2023/10/22 02:25:02;;;;;;;4.20;1.48;;;15.60;99.90;;;;;;2096916;28;20029;-71
2023/10/22 02:26:04;;;;;;;2.97;1.05;;;15.70;99.90;;;;;;2097025;28;20135;-71
2023/10/22 02:27:05;;;;;;;2.78;0.98;;;15.60;99.90;;;;;;2098732;28;20044;-71
2023/10/22 02:28:05;;;;;;;4.32;0.90;;;15.70;99.90;;;;;;2102296;28;20024;-71
2023/10/22 02:29:06;;;;;;;4.65;1.35;;;15.60;99.90;;;;;;2101395;28;20097;-73
2023/10/22 02:30:07;;;;;;;2.97;0.82;;;15.60;99.90;;;;;;2098877;28;20032;-71
2023/10/22 02:31:10;;;;;;;4.00;0.95;;;15.60;99.90;;;;;;2095639;28;20055;-72
2023/10/22 02:32:10;;;;;;;2.83;0.88;;;15.60;99.90;;;;;;2098771;28;20020;-72
2023/10/22 02:33:11;;;;;;;3.67;0.80;;;15.60;99.90;;;;;;2102594;28;20020;-71
2023/10/22 02:34:11;;;;;;;2.60;0.82;;;15.60;99.90;;;;;;2103074;28;20854;-70
2023/10/22 02:35:12;;;;;;;3.13;0.68;;;15.60;99.90;;;;;;2099451;28;20135;-72
2023/10/22 02:36:12;;;;;;;2.00;0.80;;;15.60;99.90;;;;;;2098482;28;20361;-72
2023/10/22 02:37:13;;;;;;;2.97;0.73;;;15.60;99.90;;;;;;2097482;28;20037;-72
2023/10/22 02:38:18;;;;;;;1.27;0.75;;;15.60;99.90;;;;;;2100156;28;20031;-72
2023/10/22 02:39:20;;;;;;;3.38;0.77;;;15.60;99.90;;;;;;2101393;28;20032;-72
2023/10/22 02:40:21;;;;;;;2.20;0.85;;;15.60;99.90;;;;;;2093775;28;20067;-72
2023/10/22 02:41:22;;;;;;;1.00;0.52;;;15.70;99.90;;;;;;2100154;28;20112;-72
2023/10/22 02:42:23;;;;;;;4.45;0.75;;;15.60;99.90;;;;;;2099579;28;20020;-72
2023/10/22 02:43:23;;;;;;;1.83;0.77;;;15.60;99.90;;;;;;2098623;28;20021;-72
2023/10/22 02:44:24;;;;;;;3.28;0.77;;;15.60;99.90;;;;;;2098914;28;20028;-73
2023/10/22 02:45:24;;;;;;;2.88;0.85;;;15.60;99.90;;;;;;2098776;28;20028;-72
2023/10/22 02:46:25;;;;;;;1.63;0.57;;;15.60;99.90;;;;;;2097788;28;20025;-72
2023/10/22 02:47:26;;;;;;;3.47;0.70;;;15.60;99.90;;;;;;2097545;28;20450;-72
2023/10/22 02:48:26;;;;;;;4.03;1.40;;;15.60;99.90;;;;;;2096378;28;20036;-72
2023/10/22 02:49:28;;;;;;;3.63;0.70;;;15.60;99.90;;;;;;2098755;28;20020;-72
2023/10/22 02:50:29;;;;;;;1.25;0.70;;;15.60;99.90;;;;;;2098247;28;20035;-72
2023/10/22 02:51:29;;;;;;;1.83;0.70;;;15.60;99.90;;;;;;2097606;28;20027;-73
2023/10/22 02:52:30;;;;;;;3.70;0.80;;;15.60;99.90;;;;;;2096913;28;20067;-72
2023/10/22 02:53:30;;;;;;;2.95;0.75;;;15.60;99.90;;;;;;2096395;28;20020;-72
2023/10/22 02:54:31;;;;;;;1.95;0.70;;;15.60;99.90;;;;;;2099974;28;20165;-72
2023/10/22 02:55:32;;;;;;;2.92;0.60;;;15.60;99.90;;;;;;2099776;28;20035;-72
2023/10/22 02:56:32;;;;;;;2.20;0.60;;;15.60;99.90;;;;;;2097781;28;20066;-72
2023/10/22 02:57:33;;;;;;;2.45;0.60;;;15.50;99.90;;;;;;2098614;28;20021;-72
2023/10/22 02:58:33;;;;;;;3.03;0.82;;;15.50;99.90;;;;;;2096522;28;20021;-72
2023/10/22 02:59:34;;;;;;;2.38;0.88;;;15.50;99.90;;;;;;2097590;28;20032;-72
2023/10/22 03:00:35;;;;;;;1.08;0.52;;;15.50;99.90;;;;;;2097445;28;20379;-72
2023/10/22 03:01:36;;;;;;;2.28;0.70;;;15.50;99.90;;;;;;2096805;28;20031;-72
2023/10/22 03:02:37;;;;;;;2.28;0.70;;;15.50;99.90;;;;;;2097828;28;20028;-72
2023/10/22 03:03:39;;;;;;;1.63;1.00;;;15.50;99.90;;;;;;2097113;28;20491;-72
2023/10/22 03:04:39;;;;;;;1.15;0.60;;;15.50;99.90;;;;;;2097191;28;20025;-72
2023/10/22 03:05:40;;;;;;;2.63;0.55;;;15.50;99.90;;;;;;2097566;28;20118;-72
2023/10/22 03:06:40;;;;;;;3.38;0.68;;;15.40;99.90;;;;;;2097909;28;21425;-72
2023/10/22 03:07:41;;;;;;;1.80;0.40;;;15.40;99.90;;;;;;2102078;28;20815;-72
2023/10/22 03:08:41;;;;;;;2.63;0.65;;;15.40;99.90;;;;;;2093340;28;20016;-73
2023/10/22 03:09:42;;;;;;;1.58;0.60;;;15.40;99.90;;;;;;2098159;28;20032;-72
2023/10/22 03:10:43;;;;;;;1.75;0.77;;;15.40;99.90;;;;;;2096611;28;20119;-73
2023/10/22 03:11:44;;;;;;;2.03;0.63;;;15.40;99.90;;;;;;2099087;28;20055;-73
2023/10/22 03:12:44;;;;;;;1.65;0.60;;;15.30;99.90;;;;;;2100163;28;20024;-72
2023/10/22 03:13:46;;;;;;;1.75;0.50;;;15.40;99.90;;;;;;2097944;28;20044;-72
2023/10/22 03:14:48;;;;;;;1.92;0.70;;;15.30;99.90;;;;;;2098880;28;20043;-73
2023/10/22 03:15:48;;;;;;;3.72;0.60;;;15.40;99.90;;;;;;2100138;28;20104;-72
2023/10/22 03:16:49;;;;;;;1.48;0.60;;;15.30;99.90;;;;;;2096422;28;20032;-72
2023/10/22 03:17:49;;;;;;;2.28;0.75;;;15.30;99.90;;;;;;2099599;28;20097;-73
2023/10/22 03:18:50;;;;;;;3.00;0.57;;;15.30;99.90;;;;;;2093083;28;20111;-72
2023/10/22 03:19:50;;;;;;;2.13;0.68;;;15.30;99.90;;;;;;2093242;28;20392;-72
2023/10/22 03:20:51;;;;;;;1.77;0.73;;;15.30;99.90;;;;;;2097456;28;20116;-73
2023/10/22 03:21:51;;;;;;;3.55;0.80;;;15.30;99.90;;;;;;2097972;28;20038;-72
2023/10/22 03:22:53;;;;;;;2.47;0.60;;;15.30;99.90;;;;;;2099945;28;20085;-72
2023/10/22 03:23:53;;;;;;;2.00;0.60;;;15.30;99.90;;;;;;2099507;28;20028;-73
2023/10/22 03:24:55;;;;;;;0.95;0.60;;;15.30;99.90;;;;;;2097780;28;20112;-72
2023/10/22 03:26:04;;;;;;;2.08;0.75;;;15.20;99.90;;;;;;2100610;28;20892;-72
2023/10/22 03:27:05;;;;;;;2.72;0.57;;;15.20;99.90;;;;;;2101019;28;20035;-73
2023/10/22 03:28:06;;;;;;;1.20;0.52;;;15.20;99.90;;;;;;2097372;28;20039;-73
2023/10/22 03:29:07;;;;;;;4.13;0.77;;;15.30;99.90;;;;;;2097683;28;20021;-73
2023/10/22 03:30:10;;;;;;;2.55;0.55;;;15.20;99.90;;;;;;2097655;28;20677;-73
2023/10/22 03:31:11;;;;;;;2.08;0.55;;;15.20;99.90;;;;;;2098277;28;20158;-72
2023/10/22 03:32:11;;;;;;;2.72;0.60;;;15.20;99.90;;;;;;2098174;28;20035;-72
2023/10/22 03:33:12;;;;;;;3.53;0.75;;;15.20;99.90;;;;;;2098731;28;20026;-73
2023/10/22 03:34:13;;;;;;;1.25;0.60;;;15.20;99.90;;;;;;2096796;28;20028;-72
2023/10/22 03:35:13;;;;;;;1.02;0.60;;;15.20;99.90;;;;;;2099526;28;20025;-72
2023/10/22 03:36:15;;;;;;;1.08;0.60;;;15.20;99.90;;;;;;2096324;28;20047;-73
2023/10/22 03:37:15;;;;;;;2.28;0.50;;;15.20;99.90;;;;;;2098576;28;20036;-73
2023/10/22 03:38:16;;;;;;;1.80;0.55;;;15.20;99.90;;;;;;2098282;28;20082;-72
2023/10/22 03:39:17;;;;;;;1.02;0.47;;;15.20;99.90;;;;;;2096731;28;20036;-72
2023/10/22 03:40:19;;;;;;;3.30;0.55;;;15.20;99.90;;;;;;2096270;28;20024;-72
2023/10/22 03:41:19;;;;;;;2.70;0.63;;;15.20;99.90;;;;;;2098088;28;20454;-72
2023/10/22 03:42:20;;;;;;;3.45;0.57;;;15.20;99.90;;;;;;2097453;28;20067;-72
2023/10/22 03:43:20;;;;;;;1.48;0.68;;;15.10;99.90;;;;;;2100499;28;20035;-72
2023/10/22 03:44:21;;;;;;;2.13;0.80;;;15.10;99.90;;;;;;2098519;28;20528;-72
2023/10/22 03:45:22;;;;;;;0.95;0.40;;;15.10;99.90;;;;;;2095279;28;20066;-72
2023/10/22 03:46:22;;;;;;;1.25;0.40;;;15.10;99.90;;;;;;2095731;28;20031;-72
2023/10/22 03:47:23;;;;;;;1.10;0.60;;;15.10;99.90;;;;;;2097860;28;20024;-72
2023/10/22 03:48:24;;;;;;;2.45;0.52;;;15.10;99.90;;;;;;2096357;28;20028;-72
2023/10/22 03:49:25;;;;;;;1.30;0.65;;;15.10;99.90;;;;;;2096644;28;20372;-72
2023/10/22 03:50:25;;;;;;;1.77;0.60;;;15.10;99.90;;;;;;2097226;28;20020;-72
2023/10/22 03:51:26;;;;;;;2.95;0.52;;;15.00;99.90;;;;;;2100474;28;20024;-72
2023/10/22 03:52:26;;;;;;;1.98;0.60;;;15.10;99.90;;;;;;2098040;28;20138;-74
2023/10/22 03:53:27;;;;;;;2.05;0.50;;;15.00;99.90;;;;;;2096628;28;20574;-73
2023/10/22 03:54:28;;;;;;;2.88;0.50;;;15.00;99.90;;;;;;2101544;28;20020;-73
2023/10/22 03:55:28;;;;;;;2.58;0.52;;;15.00;99.90;;;;;;2093719;28;20087;-73
2023/10/22 03:56:29;;;;;;;2.58;0.73;;;15.00;99.90;;;;;;2102250;28;20049;-72
2023/10/22 03:57:29;;;;;;;3.55;0.60;;;15.00;99.90;;;;;;2097994;28;20129;-73
2023/10/22 03:58:30;;;;;;;1.30;0.60;;;15.00;99.90;;;;;;2099335;28;20020;-73
2023/10/22 03:59:30;;;;;;;2.13;0.80;;;15.00;99.90;;;;;;2097950;28;20085;-73
2023/10/22 04:00:31;;;;;;;1.55;0.38;;;15.00;99.90;;;;;;2100513;28;20082;-73
2023/10/22 04:01:31;;;;;;;3.55;0.60;;;15.00;99.90;;;;;;2097342;28;20631;-73
2023/10/22 04:02:32;;;;;;;4.10;1.08;;;15.00;99.90;;;;;;2097058;28;20026;-72
2023/10/22 04:03:32;;;;;;;3.58;0.50;;;14.90;99.90;;;;;;2097451;28;20025;-72
2023/10/22 04:04:33;;;;;;;1.33;0.50;;;14.90;99.90;;;;;;2096623;28;20677;-72
2023/10/22 04:05:33;;;;;;;1.75;0.65;;;14.90;99.90;;;;;;2096875;28;20016;-72
2023/10/22 04:06:34;;;;;;;1.85;0.65;;;14.90;99.90;;;;;;2098086;28;20035;-72
2023/10/22 04:07:35;;;;;;;1.25;0.57;;;14.90;99.90;;;;;;2097383;28;20017;-72
2023/10/22 04:08:35;;;;;;;0.85;0.57;;;14.90;99.90;;;;;;2101066;28;20171;-72
2023/10/22 04:09:36;;;;;;;0.95;0.57;;;14.90;99.90;;;;;;2100883;28;20036;-72
2023/10/22 04:10:36;;;;;;;2.53;0.70;;;14.90;99.90;;;;;;2096507;28;20115;-72
2023/10/22 04:11:37;;;;;;;2.10;0.60;;;14.90;99.90;;;;;;2100884;28;20052;-72
2023/10/22 04:12:37;;;;;;;0.55;0.40;;;14.90;99.90;;;;;;2098844;28;20035;-73
2023/10/22 04:13:38;;;;;;;2.25;1.13;;;14.90;99.90;;;;;;2098073;28;20238;-72
2023/10/22 04:14:39;;;;;;;2.60;0.90;;;14.90;99.90;;;;;;2100984;28;20958;-73
2023/10/22 04:15:39;;;;;;;3.53;0.88;;;14.80;99.90;;;;;;2102538;28;20024;-73
2023/10/22 04:16:40;;;;;;;0.90;0.50;;;14.80;99.90;;;;;;2096129;28;20034;-72
2023/10/22 04:17:40;;;;;;;1.45;0.30;;;14.80;99.90;;;;;;2097994;28;20561;-73
2023/10/22 04:18:41;;;;;;;1.40;0.60;;;14.80;99.90;;;;;;2098128;28;20020;-73
2023/10/22 04:19:42;;;;;;;1.13;0.32;;;14.80;99.90;;;;;;2090022;28;20510;-73
2023/10/22 04:20:43;;;;;;;2.15;0.77;;;14.80;99.90;;;;;;2097754;28;20028;-72
2023/10/22 04:21:43;;;;;;;3.55;1.17;;;14.80;99.90;;;;;;2098581;28;20028;-73
2023/10/22 04:22:44;;;;;;;1.00;0.32;;;14.80;99.90;;;;;;2099286;28;20031;-73
2023/10/22 04:23:45;;;;;;;1.75;0.40;;;14.80;99.90;;;;;;2099948;28;20020;-73
2023/10/22 04:24:45;;;;;;;1.50;0.50;;;14.80;99.90;;;;;;2095765;28;20074;-72
2023/10/22 04:25:46;;;;;;;2.30;0.60;;;14.80;99.90;;;;;;2096643;28;20027;-73
2023/10/22 04:26:46;;;;;;;3.08;0.60;;;14.80;99.90;;;;;;2097331;28;20107;-72
2023/10/22 04:27:48;;;;;;;1.75;0.70;;;14.80;99.90;;;;;;2101433;28;20024;-73
2023/10/22 04:28:48;;;;;;;2.95;0.47;;;14.80;99.90;;;;;;2101716;28;20047;-72
2023/10/22 04:29:49;;;;;;;2.92;0.63;;;14.80;99.90;;;;;;2098936;28;20032;-73
2023/10/22 04:30:50;;;;;;;1.70;0.50;;;14.80;99.90;;;;;;2096074;28;20024;-73
2023/10/22 04:31:50;;;;;;;0.75;0.38;;;14.80;99.90;;;;;;2097688;28;20476;-74
2023/10/22 04:32:51;;;;;;;1.77;0.63;;;14.80;99.90;;;;;;2096814;28;20024;-73
2023/10/22 04:33:53;;;;;;;1.67;0.57;;;14.80;99.90;;;;;;2096283;28;20408;-73
2023/10/22 04:34:54;;;;;;;2.50;0.77;;;14.80;99.90;;;;;;2090530;28;20035;-73
2023/10/22 04:35:54;;;;;;;2.63;0.35;;;14.80;99.90;;;;;;2101828;28;20067;-73
2023/10/22 04:36:55;;;;;;;1.15;0.60;;;14.80;99.90;;;;;;2100259;28;20462;-73
2023/10/22 04:37:55;;;;;;;1.17;0.40;;;14.80;99.90;;;;;;2098968;28;20028;-72
2023/10/22 04:38:56;;;;;;;1.95;0.63;;;14.80;99.90;;;;;;2098440;28;20020;-72
2023/10/22 04:39:57;;;;;;;1.95;0.55;;;14.80;99.90;;;;;;2098306;28;20040;-73
2023/10/22 04:40:57;;;;;;;2.53;0.75;;;14.80;99.90;;;;;;2097718;28;20111;-73
2023/10/22 04:41:58;;;;;;;1.77;0.52;;;14.80;99.90;;;;;;2097674;28;20033;-73
2023/10/22 04:42:59;;;;;;;1.23;0.70;;;14.80;99.90;;;;;;2098885;28;20087;-72
2023/10/22 04:43:59;;;;;;;1.73;0.63;;;14.70;99.90;;;;;;2097428;28;20038;-73
2023/10/22 04:45:00;;;;;;;3.70;0.70;;;14.70;99.90;;;;;;2102607;28;20620;-73
2023/10/22 04:46:00;;;;;;;3.65;0.85;;;14.80;99.90;;;;;;2104342;28;20084;-72
2023/10/22 04:47:02;;;;;;;1.05;0.40;;;14.70;99.90;;;;;;2099169;28;20024;-73
2023/10/22 04:48:03;;;;;;;1.27;0.57;;;14.80;99.90;;;;;;2099226;28;20024;-73
2023/10/22 04:49:03;;;;;;;2.20;0.50;;;14.80;99.90;;;;;;2098726;28;20024;-72
2023/10/22 04:50:05;;;;;;;1.42;0.50;;;14.80;99.90;;;;;;2097992;28;20036;-71
2023/10/22 04:51:07;;;;;;;1.75;0.50;;;14.80;99.90;;;;;;2089446;28;20024;-72
2023/10/22 04:52:10;;;;;;;1.48;0.82;;;14.80;99.90;;;;;;2099150;28;20027;-72
2023/10/22 04:53:11;;;;;;;1.23;0.60;;;14.80;99.90;;;;;;2098611;28;20025;-72
2023/10/22 04:54:11;;;;;;;2.20;0.60;;;14.80;99.90;;;;;;2097551;28;20031;-72
2023/10/22 04:55:12;;;;;;;2.85;0.68;;;14.80;99.90;;;;;;2098955;28;20538;-72
2023/10/22 04:56:13;;;;;;;1.88;0.43;;;14.80;99.90;;;;;;2101044;28;20024;-73
2023/10/22 04:57:14;;;;;;;1.23;0.40;;;14.80;99.90;;;;;;2102879;28;20130;-72
2023/10/22 04:58:14;;;;;;;2.42;0.65;;;14.80;99.90;;;;;;2094203;28;20035;-72
2023/10/22 04:59:15;;;;;;;3.65;0.43;;;14.80;99.90;;;;;;2100764;28;20135;-73
2023/10/22 05:00:16;;;;;;;0.90;0.40;;;14.80;99.90;;;;;;2099700;28;20039;-73
2023/10/22 05:01:16;;;;;;;2.05;0.70;;;14.80;99.90;;;;;;2100023;28;20082;-73
2023/10/22 05:02:17;;;;;;;0.30;0.30;;;14.80;99.90;;;;;;2106253;28;20503;-72
2023/10/22 05:03:17;;;;;;;1.15;0.38;;;14.80;99.90;;;;;;2105874;28;20060;-73
2023/10/22 05:04:18;;;;;;;1.65;0.68;;;14.80;99.90;;;;;;2100680;28;20097;-72
2023/10/22 05:05:20;;;;;;;0.63;0.50;;;14.80;99.90;;;;;;2098608;28;20033;-73
2023/10/22 05:06:21;;;;;;;1.95;0.40;;;14.80;99.90;;;;;;2098486;28;20774;-73
2023/10/22 05:07:21;;;;;;;0.73;0.40;;;14.80;99.90;;;;;;2099604;28;20060;-72
2023/10/22 05:08:23;;;;;;;0.77;0.30;;;14.80;99.90;;;;;;2097736;28;20021;-73
2023/10/22 05:09:24;;;;;;;2.15;0.60;;;14.80;99.90;;;;;;2098759;28;20021;-71
2023/10/22 05:10:25;;;;;;;4.25;0.82;;;14.80;99.90;;;;;;2099642;28;20052;-73
2023/10/22 05:11:26;;;;;;;1.50;0.30;;;14.80;99.90;;;;;;2099706;28;20028;-72
2023/10/22 05:12:27;;;;;;;1.42;0.30;;;14.80;99.90;;;;;;2101346;28;20352;-72
2023/10/22 05:13:27;;;;;;;1.88;0.32;;;14.80;99.90;;;;;;2099583;28;20031;-72
2023/10/22 05:14:29;;;;;;;1.52;0.40;;;14.80;99.90;;;;;;2096973;28;20483;-72
2023/10/22 05:15:30;;;;;;;1.85;0.40;;;14.80;99.90;;;;;;2098082;28;20210;-72
2023/10/22 05:16:33;;;;;;;1.27;0.63;;;14.80;99.90;;;;;;2100873;28;20114;-73
2023/10/22 05:17:34;;;;;;;1.25;0.45;;;14.80;99.90;;;;;;2103732;28;20453;-72